sensor_id;sensor_type;location;lat;lon;timestamp;temperature;humidity
23568;DHT22;11962;50.838;4.430;2024-03-23T00:53:13;10.60;99.90
23568;DHT22;11962;50.838;4.430;2024-03-23T00:55:40;10.60;99.90
23568;DHT22;11962;50.838;4.430;2024-03-23T00:58:06;10.60;99.90
23568;DHT22;11962;50.838;4.430;2024-03-23T01:00:32;10.60;99.90
23568;DHT22;11962;50.838;4.430;2024-03-23T01:02:58;10.70;99.90
23568;DHT22;11962;50.838;4.430;2024-03-23T01:05:23;10.70;99.90
23568;DHT22;11962;50.838;4.430;2024-03-23T01:07:49;10.60;99.90
23568;DHT22;11962;50.838;4.430;2024-03-23T01:10:15;10.60;99.90
23568;DHT22;11962;50.838;4.430;2024-03-23T01:12:40;10.70;99.90
23568;DHT22;11962;50.838;4.430;2024-03-23T01:15:06;10.70;99.90
23568;DHT22;11962;50.838;4.430;2024-03-23T01:17:32;10.70;99.90
23568;DHT22;11962;50.838;4.430;2024-03-23T01:19:58;10.70;99.90
23568;DHT22;11962;50.838;4.430;2024-03-23T01:22:23;10.80;99.90
23568;DHT22;11962;50.838;4.430;2024-03-23T01:24:49;10.80;99.90
23568;DHT22;11962;50.838;4.430;2024-03-23T01:27:15;10.70;99.90
23568;DHT22;11962;50.838;4.430;2024-03-23T01:29:41;10.70;99.90
23568;DHT22;11962;50.838;4.430;2024-03-23T01:32:06;10.60;99.90
23568;DHT22;11962;50.838;4.430;2024-03-23T01:34:32;10.60;99.90
23568;DHT22;11962;50.838;4.430;2024-03-23T01:36:58;10.50;99.90
23568;DHT22;11962;50.838;4.430;2024-03-23T01:39:24;10.40;99.90
23568;DHT22;11962;50.838;4.430;2024-03-23T01:41:50;10.30;99.90
23568;DHT22;11962;50.838;4.430;2024-03-23T01:44:16;10.40;99.90
23568;DHT22;11962;50.838;4.430;2024-03-23T01:46:43;10.40;99.90
23568;DHT22;11962;50.838;4.430;2024-03-23T01:49:09;10.40;99.90
23568;DHT22;11962;50.838;4.430;2024-03-23T01:51:36;10.40;99.90
23568;DHT22;11962;50.838;4.430;2024-03-23T01:54:03;10.30;99.90
23568;DHT22;11962;50.838;4.430;2024-03-23T01:56:33;10.20;99.90
23568;DHT22;11962;50.838;4.430;2024-03-23T01:59:05;10.30;99.90
23568;DHT22;11962;50.838;4.430;2024-03-23T02:01:31;10.30;99.90
23568;DHT22;11962;50.838;4.430;2024-03-23T02:03:57;10.30;99.90
23568;DHT22;11962;50.838;4.430;2024-03-23T02:06:24;10.30;99.90
23568;DHT22;11962;50.838;4.430;2024-03-23T02:08:50;10.40;99.90
23568;DHT22;11962;50.838;4.430;2024-03-23T02:11:16;10.40;99.90
23568;DHT22;11962;50.838;4.430;2024-03-23T02:13:42;10.40;99.90
23568;DHT22;11962;50.838;4.430;2024-03-23T02:16:08;10.40;99.90
23568;DHT22;11962;50.838;4.430;2024-03-23T02:18:34;10.40;99.90
23568;DHT22;11962;50.838;4.430;2024-03-23T02:21:00;10.30;99.90
23568;DHT22;11962;50.838;4.430;2024-03-23T02:23:26;10.40;99.90
23568;DHT22;11962;50.838;4.430;2024-03-23T02:25:52;10.40;99.90
23568;DHT22;11962;50.838;4.430;2024-03-23T02:28:19;10.30;99.90
23568;DHT22;11962;50.838;4.430;2024-03-23T02:30:45;10.30;99.90
23568;DHT22;11962;50.838;4.430;2024-03-23T02:33:11;10.30;99.90
23568;DHT22;11962;50.838;4.430;2024-03-23T02:35:36;10.30;99.90
23568;DHT22;11962;50.838;4.430;2024-03-23T02:38:02;10.30;99.90
23568;DHT22;11962;50.838;4.430;2024-03-23T02:40:28;10.30;99.90
23568;DHT22;11962;50.838;4.430;2024-03-23T02:42:54;10.20;99.90
23568;DHT22;11962;50.838;4.430;2024-03-23T02:45:20;10.20;99.90
23568;DHT22;11962;50.838;4.430;2024-03-23T02:47:46;10.30;99.90
23568;DHT22;11962;50.838;4.430;2024-03-23T02:50:12;10.30;99.90
23568;DHT22;11962;50.838;4.430;2024-03-23T02:52:37;10.30;99.90
23568;DHT22;11962;50.838;4.430;2024-03-23T02:55:03;10.30;99.90
23568;DHT22;11962;50.838;4.430;2024-03-23T02:57:30;10.20;99.90
23568;DHT22;11962;50.838;4.430;2024-03-23T02:59:56;10.10;99.90
23568;DHT22;11962;50.838;4.430;2024-03-23T03:02:22;10.10;99.90
23568;DHT22;11962;50.838;4.430;2024-03-23T03:04:47;10.10;99.90
23568;DHT22;11962;50.838;4.430;2024-03-23T03:07:13;10.00;99.90
23568;DHT22;11962;50.838;4.430;2024-03-23T03:09:39;10.00;99.90
23568;DHT22;11962;50.838;4.430;2024-03-23T03:12:06;10.10;99.90
23568;DHT22;11962;50.838;4.430;2024-03-23T03:14:32;10.10;99.90
23568;DHT22;11962;50.838;4.430;2024-03-23T03:16:58;10.00;99.90
23568;DHT22;11962;50.838;4.430;2024-03-23T03:19:23;10.10;99.90
23568;DHT22;11962;50.838;4.430;2024-03-23T03:21:49;10.00;99.90
23568;DHT22;11962;50.838;4.430;2024-03-23T03:24:15;10.00;99.90
23568;DHT22;11962;50.838;4.430;2024-03-23T03:26:40;10.10;99.90
23568;DHT22;11962;50.838;4.430;2024-03-23T03:29:06;10.10;99.90
23568;DHT22;11962;50.838;4.430;2024-03-23T03:31:32;10.10;99.90
23568;DHT22;11962;50.838;4.430;2024-03-23T03:33:57;10.00;99.90
23568;DHT22;11962;50.838;4.430;2024-03-23T03:36:23;9.90;99.90
23568;DHT22;11962;50.838;4.430;2024-03-23T03:38:49;9.90;99.90
23568;DHT22;11962;50.838;4.430;2024-03-23T03:41:15;9.80;99.90
23568;DHT22;11962;50.838;4.430;2024-03-23T03:43:41;9.80;99.90
23568;DHT22;11962;50.838;4.430;2024-03-23T03:46:06;9.70;99.90
23568;DHT22;11962;50.838;4.430;2024-03-23T03:48:33;9.70;99.90
23568;DHT22;11962;50.838;4.430;2024-03-23T03:51:00;9.60;99.90
23568;DHT22;11962;50.838;4.430;2024-03-23T03:53:25;9.60;99.90
23568;DHT22;11962;50.838;4.430;2024-03-23T03:55:52;9.60;99.90
23568;DHT22;11962;50.838;4.430;2024-03-23T03:58:17;9.50;99.90
23568;DHT22;11962;50.838;4.430;2024-03-23T04:00:43;9.40;99.90
23568;DHT22;11962;50.838;4.430;2024-03-23T04:03:09;9.40;99.90
23568;DHT22;11962;50.838;4.430;2024-03-23T04:05:35;9.30;99.90
23568;DHT22;11962;50.838;4.430;2024-03-23T04:08:00;9.30;99.90
23568;DHT22;11962;50.838;4.430;2024-03-23T04:10:26;9.30;99.90
23568;DHT22;11962;50.838;4.430;2024-03-23T04:12:52;9.50;99.90
23568;DHT22;11962;50.838;4.430;2024-03-23T04:15:19;9.40;99.90
23568;DHT22;11962;50.838;4.430;2024-03-23T04:17:45;9.40;99.90
23568;DHT22;11962;50.838;4.430;2024-03-23T04:20:11;9.50;99.90
23568;DHT22;11962;50.838;4.430;2024-03-23T04:22:39;9.50;99.90
23568;DHT22;11962;50.838;4.430;2024-03-23T04:25:05;9.50;99.90
23568;DHT22;11962;50.838;4.430;2024-03-23T04:27:39;9.50;99.90
23568;DHT22;11962;50.838;4.430;2024-03-23T04:30:06;9.50;99.90
23568;DHT22;11962;50.838;4.430;2024-03-23T04:32:39;9.50;99.90
23568;DHT22;11962;50.838;4.430;2024-03-23T04:35:06;9.50;99.90
23568;DHT22;11962;50.838;4.430;2024-03-23T04:37:32;9.50;99.90
23568;DHT22;11962;50.838;4.430;2024-03-23T04:40:03;9.50;99.90
23568;DHT22;11962;50.838;4.430;2024-03-23T04:42:29;9.50;99.90
23568;DHT22;11962;50.838;4.430;2024-03-23T04:44:55;9.50;99.90
23568;DHT22;11962;50.838;4.430;2024-03-23T04:47:21;9.50;99.90
23568;DHT22;11962;50.838;4.430;2024-03-23T04:49:47;9.50;99.90
23568;DHT22;11962;50.838;4.430;2024-03-23T04:52:12;9.50;99.90
23568;DHT22;11962;50.838;4.430;2024-03-23T04:54:38;9.50;99.90
23568;DHT22;11962;50.838;4.430;2024-03-23T04:57:06;9.60;99.90
23568;DHT22;11962;50.838;4.430;2024-03-23T04:59:32;9.50;99.90
23568;DHT22;11962;50.838;4.430;2024-03-23T05:01:57;9.50;99.90
23568;DHT22;11962;50.838;4.430;2024-03-23T05:04:23;9.40;99.90
23568;DHT22;11962;50.838;4.430;2024-03-23T05:06:49;9.30;99.90
23568;DHT22;11962;50.838;4.430;2024-03-23T05:09:15;9.20;99.90
23568;DHT22;11962;50.838;4.430;2024-03-23T05:11:41;9.10;99.90
23568;DHT22;11962;50.838;4.430;2024-03-23T05:14:07;9.10;99.90
23568;DHT22;11962;50.838;4.430;2024-03-23T05:16:33;9.00;99.90
23568;DHT22;11962;50.838;4.430;2024-03-23T05:18:59;9.00;99.90
23568;DHT22;11962;50.838;4.430;2024-03-23T05:21:25;9.00;99.90
23568;DHT22;11962;50.838;4.430;2024-03-23T05:23:50;8.90;99.90
23568;DHT22;11962;50.838;4.430;2024-03-23T05:26:17;8.90;99.90
23568;DHT22;11962;50.838;4.430;2024-03-23T05:28:42;8.90;99.90
23568;DHT22;11962;50.838;4.430;2024-03-23T05:31:09;9.00;99.90
23568;DHT22;11962;50.838;4.430;2024-03-23T05:33:36;9.00;99.90
23568;DHT22;11962;50.838;4.430;2024-03-23T05:36:04;8.90;99.90
23568;DHT22;11962;50.838;4.430;2024-03-23T05:38:30;9.00;99.90
23568;DHT22;11962;50.838;4.430;2024-03-23T05:40:59;9.00;99.90
23568;DHT22;11962;50.838;4.430;2024-03-23T05:43:26;8.90;99.90
23568;DHT22;11962;50.838;4.430;2024-03-23T05:45:59;8.90;99.90
23568;DHT22;11962;50.838;4.430;2024-03-23T05:48:26;8.90;99.90
23568;DHT22;11962;50.838;4.430;2024-03-23T05:50:51;8.90;99.90
23568;DHT22;11962;50.838;4.430;2024-03-23T05:53:18;8.90;99.90
23568;DHT22;11962;50.838;4.430;2024-03-23T05:55:47;8.90;99.90
23568;DHT22;11962;50.838;4.430;2024-03-23T05:58:15;8.90;99.90
23568;DHT22;11962;50.838;4.430;2024-03-23T06:00:41;8.90;99.90
23568;DHT22;11962;50.838;4.430;2024-03-23T06:03:08;9.00;99.90
23568;DHT22;11962;50.838;4.430;2024-03-23T06:05:33;9.00;99.90
23568;DHT22;11962;50.838;4.430;2024-03-23T06:07:59;9.00;99.90
23568;DHT22;11962;50.838;4.430;2024-03-23T06:10:25;9.00;99.90
23568;DHT22;11962;50.838;4.430;2024-03-23T06:12:50;9.20;99.90
23568;DHT22;11962;50.838;4.430;2024-03-23T06:15:18;9.20;99.90
23568;DHT22;11962;50.838;4.430;2024-03-23T06:17:44;9.30;99.90
23568;DHT22;11962;50.838;4.430;2024-03-23T06:20:10;9.40;99.90
23568;DHT22;11962;50.838;4.430;2024-03-23T06:22:37;9.50;99.90
23568;DHT22;11962;50.838;4.430;2024-03-23T06:25:02;9.60;99.90
23568;DHT22;11962;50.838;4.430;2024-03-23T06:27:28;9.60;99.90
23568;DHT22;11962;50.838;4.430;2024-03-23T06:29:54;9.60;99.90
23568;DHT22;11962;50.838;4.430;2024-03-23T06:32:20;9.60;99.90
23568;DHT22;11962;50.838;4.430;2024-03-23T06:34:46;9.70;99.90
23568;DHT22;11962;50.838;4.430;2024-03-23T06:37:12;9.70;99.90
23568;DHT22;11962;50.838;4.430;2024-03-23T06:39:38;9.80;99.90
23568;DHT22;11962;50.838;4.430;2024-03-23T06:42:04;9.90;99.90
23568;DHT22;11962;50.838;4.430;2024-03-23T06:44:30;9.90;99.90
23568;DHT22;11962;50.838;4.430;2024-03-23T06:46:57;9.90;99.90
23568;DHT22;11962;50.838;4.430;2024-03-23T06:49:23;10.00;99.90
23568;DHT22;11962;50.838;4.430;2024-03-23T06:51:49;10.10;99.90
23568;DHT22;11962;50.838;4.430;2024-03-23T06:54:16;10.20;99.90
23568;DHT22;11962;50.838;4.430;2024-03-23T06:56:44;10.30;99.90
23568;DHT22;11962;50.838;4.430;2024-03-23T06:59:09;10.30;99.90
23568;DHT22;11962;50.838;4.430;2024-03-23T07:01:35;10.20;99.90
23568;DHT22;11962;50.838;4.430;2024-03-23T07:04:01;10.30;99.90
23568;DHT22;11962;50.838;4.430;2024-03-23T07:06:27;10.30;99.90
23568;DHT22;11962;50.838;4.430;2024-03-23T07:08:53;10.30;99.90
23568;DHT22;11962;50.838;4.430;2024-03-23T07:11:20;10.40;99.90
23568;DHT22;11962;50.838;4.430;2024-03-23T07:13:46;10.30;99.90
23568;DHT22;11962;50.838;4.430;2024-03-23T07:16:13;10.10;99.90
23568;DHT22;11962;50.838;4.430;2024-03-23T07:18:39;9.90;99.90
23568;DHT22;11962;50.838;4.430;2024-03-23T07:21:05;9.60;99.90
23568;DHT22;11962;50.838;4.430;2024-03-23T07:23:32;9.40;99.90
23568;DHT22;11962;50.838;4.430;2024-03-23T07:26:02;9.30;99.90
23568;DHT22;11962;50.838;4.430;2024-03-23T07:28:30;9.30;99.90
23568;DHT22;11962;50.838;4.430;2024-03-23T07:31:09;9.30;99.90
23568;DHT22;11962;50.838;4.430;2024-03-23T07:33:45;9.30;99.90
23568;DHT22;11962;50.838;4.430;2024-03-23T07:36:11;9.40;99.90
23568;DHT22;11962;50.838;4.430;2024-03-23T07:38:37;9.60;99.90
23568;DHT22;11962;50.838;4.430;2024-03-23T07:41:10;10.10;99.90
23568;DHT22;11962;50.838;4.430;2024-03-23T07:43:37;10.60;99.90
23568;DHT22;11962;50.838;4.430;2024-03-23T07:46:04;11.30;99.90
23568;DHT22;11962;50.838;4.430;2024-03-23T07:48:30;12.40;99.90
23568;DHT22;11962;50.838;4.430;2024-03-23T07:51:09;14.40;99.90
23568;DHT22;11962;50.838;4.430;2024-03-23T07:53:36;17.00;99.90
23568;DHT22;11962;50.838;4.430;2024-03-23T07:56:09;19.20;99.90
23568;DHT22;11962;50.838;4.430;2024-03-23T07:58:38;20.90;99.90
23568;DHT22;11962;50.838;4.430;2024-03-23T08:01:09;22.10;99.90
23568;DHT22;11962;50.838;4.430;2024-03-23T08:03:39;23.40;99.40
23568;DHT22;11962;50.838;4.430;2024-03-23T08:06:09;23.60;95.60
23568;DHT22;11962;50.838;4.430;2024-03-23T08:08:35;23.70;93.90
23568;DHT22;11962;50.838;4.430;2024-03-23T08:11:01;24.20;92.00
23568;DHT22;11962;50.838;4.430;2024-03-23T08:13:27;25.30;89.60
23568;DHT22;11962;50.838;4.430;2024-03-23T08:15:56;24.80;87.50
23568;DHT22;11962;50.838;4.430;2024-03-23T08:18:22;23.20;87.60
23568;DHT22;11962;50.838;4.430;2024-03-23T08:20:56;21.60;90.40
23568;DHT22;11962;50.838;4.430;2024-03-23T08:23:23;20.30;92.60
23568;DHT22;11962;50.838;4.430;2024-03-23T08:25:49;19.60;93.30
23568;DHT22;11962;50.838;4.430;2024-03-23T08:28:15;19.90;93.80
23568;DHT22;11962;50.838;4.430;2024-03-23T08:30:41;21.80;92.10
23568;DHT22;11962;50.838;4.430;2024-03-23T08:33:07;23.50;89.70
23568;DHT22;11962;50.838;4.430;2024-03-23T08:35:33;22.80;86.80
23568;DHT22;11962;50.838;4.430;2024-03-23T08:38:00;21.60;89.30
23568;DHT22;11962;50.838;4.430;2024-03-23T08:40:25;20.40;90.70
23568;DHT22;11962;50.838;4.430;2024-03-23T08:42:51;19.30;92.00
23568;DHT22;11962;50.838;4.430;2024-03-23T08:45:17;18.40;93.40
23568;DHT22;11962;50.838;4.430;2024-03-23T08:47:42;17.70;94.60
23568;DHT22;11962;50.838;4.430;2024-03-23T08:50:09;17.20;96.10
23568;DHT22;11962;50.838;4.430;2024-03-23T08:52:34;17.00;96.70
23568;DHT22;11962;50.838;4.430;2024-03-23T08:55:00;16.60;96.80
23568;DHT22;11962;50.838;4.430;2024-03-23T08:57:26;16.30;97.50
23568;DHT22;11962;50.838;4.430;2024-03-23T08:59:52;16.10;98.20
23568;DHT22;11962;50.838;4.430;2024-03-23T09:02:18;16.30;97.40
23568;DHT22;11962;50.838;4.430;2024-03-23T09:04:44;17.50;96.40
23568;DHT22;11962;50.838;4.430;2024-03-23T09:07:10;19.70;93.70
23568;DHT22;11962;50.838;4.430;2024-03-23T09:09:38;21.00;90.80
23568;DHT22;11962;50.838;4.430;2024-03-23T09:12:04;21.60;90.20
23568;DHT22;11962;50.838;4.430;2024-03-23T09:14:30;22.80;86.20
23568;DHT22;11962;50.838;4.430;2024-03-23T09:16:56;22.80;82.80
23568;DHT22;11962;50.838;4.430;2024-03-23T09:19:21;22.20;83.80
23568;DHT22;11962;50.838;4.430;2024-03-23T09:21:47;22.70;81.30
23568;DHT22;11962;50.838;4.430;2024-03-23T09:24:13;22.00;82.30
23568;DHT22;11962;50.838;4.430;2024-03-23T09:26:38;22.20;81.30
23568;DHT22;11962;50.838;4.430;2024-03-23T09:29:04;22.70;79.60
23568;DHT22;11962;50.838;4.430;2024-03-23T09:31:30;22.20;78.50
23568;DHT22;11962;50.838;4.430;2024-03-23T09:33:58;22.60;77.60
23568;DHT22;11962;50.838;4.430;2024-03-23T09:36:23;23.20;76.10
23568;DHT22;11962;50.838;4.430;2024-03-23T09:38:49;22.50;75.60
23568;DHT22;11962;50.838;4.430;2024-03-23T09:41:15;22.80;75.80
23568;DHT22;11962;50.838;4.430;2024-03-23T09:43:41;22.90;73.80
23568;DHT22;11962;50.838;4.430;2024-03-23T09:46:07;24.00;73.70
23568;DHT22;11962;50.838;4.430;2024-03-23T09:48:33;25.10;71.10
23568;DHT22;11962;50.838;4.430;2024-03-23T09:50:59;26.70;67.80
23568;DHT22;11962;50.838;4.430;2024-03-23T09:53:25;27.10;60.60
23568;DHT22;11962;50.838;4.430;2024-03-23T09:55:51;27.10;62.60
23568;DHT22;11962;50.838;4.430;2024-03-23T09:58:17;26.60;60.00
23568;DHT22;11962;50.838;4.430;2024-03-23T10:00:44;25.50;60.50
23568;DHT22;11962;50.838;4.430;2024-03-23T10:03:10;24.10;63.20
23568;DHT22;11962;50.838;4.430;2024-03-23T10:05:37;23.30;63.90
23568;DHT22;11962;50.838;4.430;2024-03-23T10:08:18;21.90;67.00
23568;DHT22;11962;50.838;4.430;2024-03-23T10:10:45;20.50;69.80
23568;DHT22;11962;50.838;4.430;2024-03-23T10:13:24;21.40;72.60
23568;DHT22;11962;50.838;4.430;2024-03-23T10:15:58;24.20;64.90
23568;DHT22;11962;50.838;4.430;2024-03-23T10:18:25;26.10;60.00
23568;DHT22;11962;50.838;4.430;2024-03-23T10:21:07;25.20;57.90
23568;DHT22;11962;50.838;4.430;2024-03-23T10:23:34;23.90;61.70
23568;DHT22;11962;50.838;4.430;2024-03-23T10:26:16;25.00;60.70
23568;DHT22;11962;50.838;4.430;2024-03-23T10:28:53;25.70;57.50
23568;DHT22;11962;50.838;4.430;2024-03-23T10:31:19;25.90;58.30
23568;DHT22;11962;50.838;4.430;2024-03-23T10:33:47;27.60;57.00
23568;DHT22;11962;50.838;4.430;2024-03-23T10:36:14;29.20;54.80
23568;DHT22;11962;50.838;4.430;2024-03-23T10:38:41;30.30;52.90
23568;DHT22;11962;50.838;4.430;2024-03-23T10:41:09;30.30;51.80
23568;DHT22;11962;50.838;4.430;2024-03-23T10:43:38;29.90;51.40
23568;DHT22;11962;50.838;4.430;2024-03-23T10:46:05;30.10;50.10
23568;DHT22;11962;50.838;4.430;2024-03-23T10:48:32;29.60;49.60
23568;DHT22;11962;50.838;4.430;2024-03-23T10:50:58;29.40;49.70
23568;DHT22;11962;50.838;4.430;2024-03-23T10:53:27;29.30;49.80
23568;DHT22;11962;50.838;4.430;2024-03-23T10:55:54;29.50;48.60
23568;DHT22;11962;50.838;4.430;2024-03-23T10:58:42;29.10;49.00
23568;DHT22;11962;50.838;4.430;2024-03-23T11:01:14;27.50;49.50
23568;DHT22;11962;50.838;4.430;2024-03-23T11:03:52;26.50;51.70
23568;DHT22;11962;50.838;4.430;2024-03-23T11:06:41;27.00;51.30
23568;DHT22;11962;50.838;4.430;2024-03-23T11:09:42;27.40;49.80
23568;DHT22;11962;50.838;4.430;2024-03-23T11:15:02;26.10;50.10
23568;DHT22;11962;50.838;4.430;2024-03-23T11:17:29;26.30;50.60
23568;DHT22;11962;50.838;4.430;2024-03-23T11:20:04;26.70;48.90
23568;DHT22;11962;50.838;4.430;2024-03-23T11:22:44;26.90;48.80
23568;DHT22;11962;50.838;4.430;2024-03-23T11:25:25;27.40;49.10
23568;DHT22;11962;50.838;4.430;2024-03-23T11:27:53;27.50;47.20
23568;DHT22;11962;50.838;4.430;2024-03-23T11:30:21;27.30;47.20
23568;DHT22;11962;50.838;4.430;2024-03-23T11:32:51;26.80;47.50
23568;DHT22;11962;50.838;4.430;2024-03-23T11:38:12;26.00;48.80
23568;DHT22;11962;50.838;4.430;2024-03-23T11:40:48;26.20;49.80
23568;DHT22;11962;50.838;4.430;2024-03-23T11:43:18;26.20;49.10
23568;DHT22;11962;50.838;4.430;2024-03-23T11:45:49;25.30;50.10
23568;DHT22;11962;50.838;4.430;2024-03-23T11:48:19;24.80;50.30
23568;DHT22;11962;50.838;4.430;2024-03-23T11:50:47;24.70;50.90
23568;DHT22;11962;50.838;4.430;2024-03-23T11:53:21;23.60;51.80
23568;DHT22;11962;50.838;4.430;2024-03-23T11:58:14;22.90;54.80
23568;DHT22;11962;50.838;4.430;2024-03-23T12:00:40;23.20;54.50
23568;DHT22;11962;50.838;4.430;2024-03-23T12:03:06;22.80;54.30
23568;DHT22;11962;50.838;4.430;2024-03-23T12:05:32;21.90;54.80
23568;DHT22;11962;50.838;4.430;2024-03-23T12:08:24;20.70;56.70
23568;DHT22;11962;50.838;4.430;2024-03-23T12:10:52;19.90;59.00
23568;DHT22;11962;50.838;4.430;2024-03-23T12:13:21;19.40;60.70
23568;DHT22;11962;50.838;4.430;2024-03-23T12:15:50;18.60;61.70
23568;DHT22;11962;50.838;4.430;2024-03-23T12:18:16;18.00;63.00
23568;DHT22;11962;50.838;4.430;2024-03-23T12:20:42;17.60;64.80
23568;DHT22;11962;50.838;4.430;2024-03-23T12:23:10;17.40;65.70
23568;DHT22;11962;50.838;4.430;2024-03-23T12:25:40;17.30;66.50
23568;DHT22;11962;50.838;4.430;2024-03-23T12:28:07;17.20;66.30
23568;DHT22;11962;50.838;4.430;2024-03-23T12:30:38;16.70;70.80
23568;DHT22;11962;50.838;4.430;2024-03-23T12:33:04;16.10;74.60
23568;DHT22;11962;50.838;4.430;2024-03-23T12:35:30;15.60;75.20
23568;DHT22;11962;50.838;4.430;2024-03-23T12:37:56;15.30;75.90
23568;DHT22;11962;50.838;4.430;2024-03-23T12:40:22;15.20;76.90
23568;DHT22;11962;50.838;4.430;2024-03-23T12:42:48;15.20;78.30
23568;DHT22;11962;50.838;4.430;2024-03-23T12:45:14;15.20;77.80
23568;DHT22;11962;50.838;4.430;2024-03-23T12:47:39;15.20;79.60
23568;DHT22;11962;50.838;4.430;2024-03-23T12:50:05;15.20;78.80
23568;DHT22;11962;50.838;4.430;2024-03-23T12:52:32;15.20;78.60
23568;DHT22;11962;50.838;4.430;2024-03-23T12:54:58;15.30;79.60
23568;DHT22;11962;50.838;4.430;2024-03-23T12:57:25;15.20;78.00
23568;DHT22;11962;50.838;4.430;2024-03-23T12:59:52;15.20;78.40
23568;DHT22;11962;50.838;4.430;2024-03-23T13:02:21;15.10;76.70
23568;DHT22;11962;50.838;4.430;2024-03-23T13:04:53;15.00;76.80
23568;DHT22;11962;50.838;4.430;2024-03-23T13:07:20;15.20;76.90
23568;DHT22;11962;50.838;4.430;2024-03-23T13:09:47;15.30;74.50
23568;DHT22;11962;50.838;4.430;2024-03-23T13:12:15;15.30;70.70
23568;DHT22;11962;50.838;4.430;2024-03-23T13:14:40;15.30;70.90
23568;DHT22;11962;50.838;4.430;2024-03-23T13:17:07;15.20;69.80
23568;DHT22;11962;50.838;4.430;2024-03-23T13:19:33;15.20;69.50
23568;DHT22;11962;50.838;4.430;2024-03-23T13:22:00;15.20;70.40
23568;DHT22;11962;50.838;4.430;2024-03-23T13:24:26;15.30;70.80
23568;DHT22;11962;50.838;4.430;2024-03-23T13:26:53;15.30;70.30
23568;DHT22;11962;50.838;4.430;2024-03-23T13:29:20;15.20;70.30
23568;DHT22;11962;50.838;4.430;2024-03-23T13:31:46;15.00;72.00
23568;DHT22;11962;50.838;4.430;2024-03-23T13:34:12;14.90;71.30
23568;DHT22;11962;50.838;4.430;2024-03-23T13:36:42;15.10;70.60
23568;DHT22;11962;50.838;4.430;2024-03-23T13:39:08;15.40;69.40
23568;DHT22;11962;50.838;4.430;2024-03-23T13:41:44;15.70;68.30
23568;DHT22;11962;50.838;4.430;2024-03-23T13:44:14;15.80;68.80
23568;DHT22;11962;50.838;4.430;2024-03-23T13:46:40;16.00;69.00
23568;DHT22;11962;50.838;4.430;2024-03-23T13:49:34;16.10;68.10
23568;DHT22;11962;50.838;4.430;2024-03-23T13:51:59;16.10;68.40
23568;DHT22;11962;50.838;4.430;2024-03-23T13:54:28;16.10;68.90
23568;DHT22;11962;50.838;4.430;2024-03-23T13:56:55;16.20;69.30
23568;DHT22;11962;50.838;4.430;2024-03-23T13:59:22;16.30;69.10
23568;DHT22;11962;50.838;4.430;2024-03-23T14:01:51;16.40;69.60
23568;DHT22;11962;50.838;4.430;2024-03-23T14:04:17;16.50;69.40
23568;DHT22;11962;50.838;4.430;2024-03-23T14:06:45;16.30;69.50
23568;DHT22;11962;50.838;4.430;2024-03-23T14:09:14;16.10;70.50
23568;DHT22;11962;50.838;4.430;2024-03-23T14:11:40;16.10;71.00
23568;DHT22;11962;50.838;4.430;2024-03-23T14:14:08;16.10;71.70
23568;DHT22;11962;50.838;4.430;2024-03-23T14:16:34;16.10;71.60
23568;DHT22;11962;50.838;4.430;2024-03-23T14:19:00;16.00;71.40
23568;DHT22;11962;50.838;4.430;2024-03-23T14:21:26;16.00;70.80
23568;DHT22;11962;50.838;4.430;2024-03-23T14:23:52;16.00;70.90
23568;DHT22;11962;50.838;4.430;2024-03-23T14:26:19;16.00;70.90
23568;DHT22;11962;50.838;4.430;2024-03-23T14:28:45;16.10;71.00
23568;DHT22;11962;50.838;4.430;2024-03-23T14:31:11;16.00;70.40
23568;DHT22;11962;50.838;4.430;2024-03-23T14:33:37;15.90;71.40
23568;DHT22;11962;50.838;4.430;2024-03-23T14:36:06;15.70;71.80
23568;DHT22;11962;50.838;4.430;2024-03-23T14:38:32;15.50;72.20
23568;DHT22;11962;50.838;4.430;2024-03-23T14:40:59;15.20;72.30
23568;DHT22;11962;50.838;4.430;2024-03-23T14:43:25;15.10;71.80
23568;DHT22;11962;50.838;4.430;2024-03-23T14:46:10;14.80;73.40
23568;DHT22;11962;50.838;4.430;2024-03-23T14:48:37;14.50;74.30
23568;DHT22;11962;50.838;4.430;2024-03-23T14:51:03;14.30;75.30
23568;DHT22;11962;50.838;4.430;2024-03-23T14:53:34;14.30;76.00
23568;DHT22;11962;50.838;4.430;2024-03-23T14:56:01;14.40;75.40
23568;DHT22;11962;50.838;4.430;2024-03-23T14:58:27;14.50;75.20
23568;DHT22;11962;50.838;4.430;2024-03-23T15:00:59;14.50;76.50
23568;DHT22;11962;50.838;4.430;2024-03-23T15:03:25;14.50;75.80
23568;DHT22;11962;50.838;4.430;2024-03-23T15:05:56;14.50;75.00
23568;DHT22;11962;50.838;4.430;2024-03-23T15:08:22;14.60;75.00
23568;DHT22;11962;50.838;4.430;2024-03-23T15:10:48;14.70;75.40
23568;DHT22;11962;50.838;4.430;2024-03-23T15:13:14;14.70;76.70
23568;DHT22;11962;50.838;4.430;2024-03-23T15:15:40;14.80;76.00
23568;DHT22;11962;50.838;4.430;2024-03-23T15:18:10;14.80;76.00
23568;DHT22;11962;50.838;4.430;2024-03-23T15:20:35;14.80;75.60
23568;DHT22;11962;50.838;4.430;2024-03-23T15:23:02;14.80;76.10
23568;DHT22;11962;50.838;4.430;2024-03-23T15:25:28;14.60;76.60
23568;DHT22;11962;50.838;4.430;2024-03-23T15:27:54;14.50;77.20
23568;DHT22;11962;50.838;4.430;2024-03-23T15:30:20;14.50;77.60
23568;DHT22;11962;50.838;4.430;2024-03-23T15:32:46;14.60;78.30
23568;DHT22;11962;50.838;4.430;2024-03-23T15:35:12;14.50;77.50
23568;DHT22;11962;50.838;4.430;2024-03-23T15:37:38;14.40;77.70
23568;DHT22;11962;50.838;4.430;2024-03-23T15:40:06;14.40;77.80
23568;DHT22;11962;50.838;4.430;2024-03-23T15:42:32;14.30;78.30
23568;DHT22;11962;50.838;4.430;2024-03-23T15:44:57;14.40;77.50
23568;DHT22;11962;50.838;4.430;2024-03-23T15:47:23;14.50;77.60
23568;DHT22;11962;50.838;4.430;2024-03-23T15:49:49;14.40;77.80
23568;DHT22;11962;50.838;4.430;2024-03-23T15:52:15;14.30;77.70
23568;DHT22;11962;50.838;4.430;2024-03-23T15:54:43;14.40;77.90
23568;DHT22;11962;50.838;4.430;2024-03-23T15:57:09;14.40;78.00
23568;DHT22;11962;50.838;4.430;2024-03-23T15:59:34;14.30;78.60
23568;DHT22;11962;50.838;4.430;2024-03-23T16:02:01;14.30;78.90
23568;DHT22;11962;50.838;4.430;2024-03-23T16:04:28;14.40;78.60
23568;DHT22;11962;50.838;4.430;2024-03-23T16:06:54;14.30;78.90
23568;DHT22;11962;50.838;4.430;2024-03-23T16:09:19;14.30;78.10
23568;DHT22;11962;50.838;4.430;2024-03-23T16:11:45;14.30;77.20
23568;DHT22;11962;50.838;4.430;2024-03-23T16:14:11;14.30;76.50
23568;DHT22;11962;50.838;4.430;2024-03-23T16:16:36;14.30;76.10
23568;DHT22;11962;50.838;4.430;2024-03-23T16:19:02;14.30;75.80
23568;DHT22;11962;50.838;4.430;2024-03-23T16:21:28;14.30;75.70
23568;DHT22;11962;50.838;4.430;2024-03-23T16:23:53;14.30;75.90
23568;DHT22;11962;50.838;4.430;2024-03-23T16:26:19;14.20;75.30
23568;DHT22;11962;50.838;4.430;2024-03-23T16:28:45;14.20;73.80
23568;DHT22;11962;50.838;4.430;2024-03-23T16:31:13;13.90;73.20
23568;DHT22;11962;50.838;4.430;2024-03-23T16:33:39;13.80;74.30
23568;DHT22;11962;50.838;4.430;2024-03-23T16:36:11;13.80;74.20